Langston, Oklahoma
Current Conditions -  °F | °C
As of 9:05 AM on Friday 19 Dec 2014 (Local Time) from KGOK Reporting Station
Haze Haze  
Wind Chill: 37°   Ceiling: 400
Heat Index: 37°   Visibility: 1.7mi
Dew Point: 36°   Wind: 3mph
Humidity: 96%   Direction: NA
Pressure: 30.25"   Gusts: NA
Location:  35.95°N, 97.26°W
Report Text: KGOK 191505Z AUTO VRB03KT 1 3/4SM BR BKN004 OVC008 03/02 A3025 RMK AO2 T00280022
Loading
Personal Weather Stations






























Interactive Weather Map New forecast layout! Learn more

10-Day Weather Forecast

Advertisements
Track Severe Weather on mobile